Time;durP1;ratioP1;P1;durP2;ratioP2;P2;SDS_P1;SDS_P2;PMS_P1;PMS_P2;Temp;Humidity;BMP_temperature;BMP_pressure;BME280_temperature;BME280_humidity;BME280_pressure;Samples;Min_cycle;Max_cycle;Signal;HPM_P1;HPM_P2
2023/04/29 00:04:29;;;;;;;1.23;0.57;;;;;;;;;;20917708;28;20210;-77
2023/04/29 00:14:31;;;;;;;0.77;0.50;;;;;;;;;;20915193;28;20226;-77
2023/04/29 00:24:33;;;;;;;1.10;0.50;;;;;;;;;;20916097;28;20194;-78
2023/04/29 00:34:34;;;;;;;0.60;0.50;;;;;;;;;;20915065;28;20283;-78
2023/04/29 00:44:36;;;;;;;0.60;0.40;;;;;;;;;;20913374;28;20210;-77
2023/04/29 00:54:38;;;;;;;0.60;0.50;;;;;;;;;;20912126;28;20241;-77
2023/04/29 01:04:41;;;;;;;2.20;0.50;;;;;;;;;;20911124;28;20612;-77
2023/04/29 01:14:48;;;;;;;0.60;0.50;;;14.10;99.90;;;;;;20903564;28;20553;-77
2023/04/29 01:24:51;;;;;;;2.47;0.60;;;;;;;;;;20893645;28;20222;-77
2023/04/29 01:34:53;;;;;;;2.27;0.43;;;;;;;;;;20909983;28;20233;-77
2023/04/29 01:44:56;;;;;;;0.80;0.47;;;;;;;;;;20911235;28;20236;-77
2023/04/29 01:55:00;;;;;;;0.90;0.60;;;;;;;;;;20895835;28;20820;-77
2023/04/29 02:05:10;;;;;;;1.10;0.80;;;;;;;;;;20939550;28;20217;-77
2023/04/29 02:15:16;;;;;;;0.67;0.50;;;;;;;;;;20906432;28;20226;-77
2023/04/29 02:25:18;;;;;;;2.83;0.80;;;;;;;;;;20905936;28;20194;-77
2023/04/29 02:35:20;;;;;;;0.57;0.40;;;;;;;;;;20905457;28;20233;-77
2023/04/29 02:45:22;;;;;;;0.30;0.30;;;;;;;;;;20900087;28;20255;-78
2023/04/29 02:55:24;;;;;;;0.30;0.30;;;;;;;;;;20908770;28;20233;-78
2023/04/29 03:05:26;;;;;;;0.83;0.37;;;;;;;;;;20894901;28;20225;-79
2023/04/29 03:15:28;;;;;;;0.53;0.40;;;;;;;;;;20904269;28;20226;-79
2023/04/29 03:25:30;;;;;;;0.43;0.30;;;;;;;;;;20914144;28;20209;-79
2023/04/29 03:35:32;;;;;;;0.53;0.33;;;;;;;;;;20885997;28;20229;-80
2023/04/29 03:45:52;;;;;;;0.90;0.40;;;;;;;;;;20905154;28;20209;-79
2023/04/29 03:55:57;;;;;;;0.40;0.30;;;;;;;;;;20916955;28;20222;-78
2023/04/29 04:05:58;;;;;;;0.57;0.47;;;;;;;;;;20946571;28;20221;-78
2023/04/29 04:16:00;;;;;;;9.27;6.53;;;;;;;;;;20940745;28;20224;-79
2023/04/29 04:26:02;;;;;;;0.97;0.60;;;13.40;99.90;;;;;;21003630;28;20275;-79
2023/04/29 04:36:27;;;;;;;0.30;0.30;;;;;;;;;;20995441;28;20221;-80
2023/04/29 04:46:29;;;;;;;0.50;0.40;;;;;;;;;;20994295;28;20286;-79
2023/04/29 04:56:47;;;;;;;0.20;0.20;;;;;;;;;;20962507;28;20239;-78
2023/04/29 05:06:51;;;;;;;0.30;0.20;;;;;;;;;;20993743;28;20216;-79
2023/04/29 05:16:59;;;;;;;0.37;0.37;;;;;;;;;;20975038;28;20236;-79
2023/04/29 05:27:03;;;;;;;0.67;0.47;;;;;;;;;;20990371;28;20306;-79
2023/04/29 05:37:05;;;;;;;0.70;0.57;;;;;;;;;;20990198;28;20225;-79
2023/04/29 05:47:13;;;;;;;0.83;0.50;;;;;;;;;;20988751;28;20286;-80
2023/04/29 05:57:15;;;;;;;1.20;0.30;;;;;;;;;;20997391;28;20208;-80
2023/04/29 06:07:17;;;;;;;0.87;0.60;;;;;;;;;;20997428;28;20233;-81
2023/04/29 06:17:31;;;;;;;0.90;0.70;;;;;;;;;;20987581;28;20757;-80
2023/04/29 06:27:32;;;;;;;1.03;0.50;;;;;;;;;;20986914;28;20228;-80
2023/04/29 06:37:34;;;;;;;2.60;0.70;;;;;;;;;;20986314;28;20217;-80
2023/04/29 06:47:56;;;;;;;1.40;0.90;;;;;;;;;;20956387;28;20221;-80
2023/04/29 06:58:24;;;;;;;1.23;1.00;;;;;;;;;;20989186;28;20267;-79
2023/04/29 07:08:27;;;;;;;1.70;0.83;;;;;;;;;;21002251;28;20286;-79
2023/04/29 07:18:29;;;;;;;2.07;1.50;;;;;;;;;;20984510;28;20236;-81
2023/04/29 07:28:31;;;;;;;2.23;1.30;;;;;;;;;;21006390;28;20251;-79
2023/04/29 07:38:35;;;;;;;1.93;1.20;;;;;;;;;;20988396;28;20243;-80
2023/04/29 07:48:40;;;;;;;2.77;1.93;;;;;;;;;;20998008;28;20297;-79
2023/04/29 07:58:45;;;;;;;3.53;2.40;;;;;;;;;;20998746;28;20283;-80
2023/04/29 08:08:50;;;;;;;3.20;1.73;;;;;;;;;;20919431;28;20222;-79
2023/04/29 08:18:55;;;;;;;3.30;1.80;;;;;;;;;;20895301;28;20242;-79
2023/04/29 08:28:56;;;;;;;2.47;1.90;;;;;;;;;;20896964;28;20242;-80
2023/04/29 08:38:58;;;;;;;2.50;1.77;;;;;;;;;;20912891;28;20679;-79
2023/04/29 08:49:02;;;;;;;3.23;1.53;;;;;;;;;;20911769;28;20218;-80
2023/04/29 08:59:06;;;;;;;2.90;1.30;;;;;;;;;;20914176;28;20254;-80
2023/04/29 09:09:08;;;;;;;1.83;1.30;;;;;;;;;;20935068;28;20579;-79
2023/04/29 09:19:09;;;;;;;1.37;1.00;;;;;;;;;;20893359;28;20668;-80
2023/04/29 09:29:12;;;;;;;1.90;1.03;;;;;;;;;;20906841;28;20263;-80
2023/04/29 09:39:16;;;;;;;1.60;1.00;;;;;;;;;;20909731;28;20213;-79
2023/04/29 09:49:24;;;;;;;1.67;1.13;;;;;;;;;;20890583;28;20539;-80
2023/04/29 09:59:25;;;;;;;1.97;1.20;;;15.10;99.90;;;;;;20906835;28;20266;-80
2023/04/29 10:09:29;;;;;;;1.60;1.17;;;15.30;99.90;;;;;;20905799;28;20232;-80
2023/04/29 10:19:38;;;;;;;1.63;1.23;;;15.10;99.90;;;;;;20888843;28;20222;-80
2023/04/29 10:29:42;;;;;;;2.47;1.10;;;14.90;99.90;;;;;;20904083;28;20217;-80
2023/04/29 10:39:44;;;;;;;1.47;0.97;;;;;;;;;;20905621;28;20214;-80
2023/04/29 10:50:03;;;;;;;2.07;0.90;;;15.00;99.90;;;;;;20930188;28;20781;-79
2023/04/29 11:00:05;;;;;;;3.37;1.60;;;;;;;;;;20904333;28;20214;-79
2023/04/29 11:10:07;;;;;;;1.47;1.00;;;;;;;;;;20903977;28;20229;-79
2023/04/29 11:20:09;;;;;;;2.17;1.30;;;;;;;;;;20903515;28;20233;-79
2023/04/29 11:30:13;;;;;;;1.80;1.10;;;;;;;;;;20903203;28;20237;-80
2023/04/29 11:40:15;;;;;;;2.10;1.03;;;16.80;99.90;;;;;;20903345;28;20194;-78
2023/04/29 11:50:18;;;;;;;1.50;1.10;;;;;;;;;;20915825;28;20226;-80
2023/04/29 12:00:21;;;;;;;2.50;1.47;;;;;;;;;;20916015;28;20218;-79
2023/04/29 12:10:22;;;;;;;5.33;1.50;;;;;;;;;;20915080;28;20237;-79
2023/04/29 12:20:24;;;;;;;1.53;1.10;;;;;;;;;;20860980;28;20240;-79
2023/04/29 12:30:26;;;;;;;2.10;1.20;;;;;;;;;;20851132;28;20615;-79
2023/04/29 12:40:28;;;;;;;1.17;0.90;;;;;;;;;;20867913;28;20210;-79
2023/04/29 12:50:31;;;;;;;1.40;1.03;;;;;;;;;;20915638;28;20281;-80
2023/04/29 13:00:34;;;;;;;1.63;1.00;;;;;;;;;;20915163;28;20236;-79
2023/04/29 13:10:35;;;;;;;1.03;0.73;;;;;;;;;;20843658;28;20387;-79
2023/04/29 13:20:37;;;;;;;2.17;1.50;;;;;;;;;;20890059;28;20244;-81
2023/04/29 13:30:39;;;;;;;2.17;1.30;;;;;;;;;;20855543;28;20297;-80
2023/04/29 13:40:40;;;;;;;1.57;1.10;;;;;;;;;;20829815;28;20261;-80
2023/04/29 13:50:45;;;;;;;3.30;1.50;;;;;;;;;;20830490;28;20284;-80
2023/04/29 14:00:47;;;;;;;1.43;0.93;;;;;;;;;;20847376;28;20699;-80
2023/04/29 14:10:49;;;;;;;2.17;1.33;;;;;;;;;;20808011;28;20229;-80
2023/04/29 14:20:52;;;;;;;1.27;0.93;;;;;;;;;;20876792;28;20252;-79
2023/04/29 14:30:54;;;;;;;2.07;0.80;;;;;;;;;;20910278;28;20256;-79
2023/04/29 14:40:56;;;;;;;0.90;0.80;;;;;;;;;;20910009;28;20201;-79
2023/04/29 14:50:57;;;;;;;1.90;1.17;;;;;;;;;;20909488;28;20310;-79
2023/04/29 15:01:00;;;;;;;1.30;0.83;;;;;;;;;;20899357;28;20711;-79
2023/04/29 15:11:01;;;;;;;1.17;0.87;;;;;;;;;;20835129;28;20257;-80
2023/04/29 15:21:03;;;;;;;1.37;1.00;;;;;;;;;;20856734;28;20288;-79
2023/04/29 15:31:05;;;;;;;0.70;0.70;;;;;;;;;;20920347;28;20597;-81
2023/04/29 15:41:06;;;;;;;1.03;0.70;;;;;;;;;;20949329;28;20221;-80
2023/04/29 15:51:08;;;;;;;0.90;0.70;;;;;;;;;;20921917;28;20229;-80
2023/04/29 16:01:10;;;;;;;1.27;0.90;;;;;;;;;;20921587;28;20280;-79
2023/04/29 16:11:12;;;;;;;1.40;0.90;;;;;;;;;;20891093;28;20242;-80
2023/04/29 16:21:13;;;;;;;1.30;1.00;;;;;;;;;;20866319;28;20280;-80
2023/04/29 16:31:17;;;;;;;1.00;0.73;;;;;;;;;;20834534;28;20230;-80
2023/04/29 16:41:19;;;;;;;1.27;0.90;;;;;;;;;;20835760;28;20202;-80
2023/04/29 16:51:24;;;;;;;1.07;0.87;;;16.10;99.90;;;;;;20835422;28;20794;-81
2023/04/29 17:01:25;;;;;;;2.53;1.20;;;;;;;;;;20833518;28;20252;-80
2023/04/29 17:11:27;;;;;;;1.60;1.00;;;;;;;;;;20846122;28;20261;-80
2023/04/29 17:21:31;;;;;;;1.97;1.23;;;;;;;;;;20844355;28;20895;-80
2023/04/29 17:31:43;;;;;;;1.50;1.23;;;;;;;;;;20831667;28;20260;-80
2023/04/29 17:41:45;;;;;;;2.53;1.70;;;;;;;;;;20813029;28;20214;-80
2023/04/29 17:51:47;;;;;;;2.80;2.13;;;;;;;;;;20830777;28;20226;-80
2023/04/29 18:01:49;;;;;;;4.30;2.47;;;;;;;;;;20830786;28;20270;-80
2023/04/29 18:11:50;;;;;;;4.00;2.67;;;;;;;;;;20833585;28;20282;-80
2023/04/29 18:21:57;;;;;;;4.90;3.20;;;;;;;;;;20827753;28;20290;-79
2023/04/29 18:32:00;;;;;;;4.37;2.63;;;;;;;;;;20829344;28;20655;-81
2023/04/29 18:42:05;;;;;;;4.97;3.47;;;;;;;;;;20829783;28;20269;-81
2023/04/29 18:52:07;;;;;;;4.70;3.27;;;;;;;;;;20853907;28;20234;-80
2023/04/29 19:02:09;;;;;;;4.17;3.00;;;;;;;;;;20839998;28;20774;-80
2023/04/29 19:12:11;;;;;;;4.17;3.37;;;;;;;;;;20838438;28;20238;-80
2023/04/29 19:22:12;;;;;;;4.27;3.23;;;;;;;;;;20838232;28;20569;-80
2023/04/29 19:32:14;;;;;;;3.70;2.87;;;;;;;;;;20819540;28;20234;-81
